sensor_id;sensor_type;location;lat;lon;timestamp;temperature;humidity
17849;DHT22;9050;48.746;9.232;2022-09-12T00:01:58;12.90;99.90
17849;DHT22;9050;48.746;9.232;2022-09-12T00:04:25;12.80;99.90
17849;DHT22;9050;48.746;9.232;2022-09-12T00:06:53;12.80;99.90
17849;DHT22;9050;48.746;9.232;2022-09-12T00:09:19;12.80;99.90
17849;DHT22;9050;48.746;9.232;2022-09-12T00:11:46;12.80;99.90
17849;DHT22;9050;48.746;9.232;2022-09-12T00:14:15;12.80;99.90
17849;DHT22;9050;48.746;9.232;2022-09-12T00:16:44;12.70;99.90
17849;DHT22;9050;48.746;9.232;2022-09-12T00:19:11;12.80;99.90
17849;DHT22;9050;48.746;9.232;2022-09-12T00:21:40;12.80;99.90
17849;DHT22;9050;48.746;9.232;2022-09-12T00:24:08;12.70;99.90
17849;DHT22;9050;48.746;9.232;2022-09-12T00:26:36;12.70;99.90
17849;DHT22;9050;48.746;9.232;2022-09-12T00:29:03;12.70;99.90
17849;DHT22;9050;48.746;9.232;2022-09-12T00:31:30;12.60;99.90
17849;DHT22;9050;48.746;9.232;2022-09-12T00:33:59;12.50;99.90
17849;DHT22;9050;48.746;9.232;2022-09-12T00:36:29;12.50;99.90
17849;DHT22;9050;48.746;9.232;2022-09-12T00:38:56;12.50;99.90
17849;DHT22;9050;48.746;9.232;2022-09-12T00:41:25;12.50;99.90
17849;DHT22;9050;48.746;9.232;2022-09-12T00:43:54;12.50;99.90
17849;DHT22;9050;48.746;9.232;2022-09-12T00:46:30;12.50;99.90
17849;DHT22;9050;48.746;9.232;2022-09-12T00:49:04;12.50;99.90
17849;DHT22;9050;48.746;9.232;2022-09-12T00:51:33;12.50;99.90
17849;DHT22;9050;48.746;9.232;2022-09-12T00:54:05;12.50;99.90
17849;DHT22;9050;48.746;9.232;2022-09-12T00:56:34;12.50;99.90
17849;DHT22;9050;48.746;9.232;2022-09-12T00:59:05;12.50;99.90
17849;DHT22;9050;48.746;9.232;2022-09-12T01:01:34;12.40;99.90
17849;DHT22;9050;48.746;9.232;2022-09-12T01:04:03;12.40;99.90
17849;DHT22;9050;48.746;9.232;2022-09-12T01:06:34;12.30;99.90
17849;DHT22;9050;48.746;9.232;2022-09-12T01:09:03;12.30;99.90
17849;DHT22;9050;48.746;9.232;2022-09-12T01:11:30;12.30;99.90
17849;DHT22;9050;48.746;9.232;2022-09-12T01:13:58;12.20;99.90
17849;DHT22;9050;48.746;9.232;2022-09-12T01:16:25;12.20;99.90
17849;DHT22;9050;48.746;9.232;2022-09-12T01:19:00;12.20;99.90
17849;DHT22;9050;48.746;9.232;2022-09-12T01:21:41;12.20;99.90
17849;DHT22;9050;48.746;9.232;2022-09-12T01:24:41;12.20;99.90
17849;DHT22;9050;48.746;9.232;2022-09-12T01:27:39;12.20;99.90
17849;DHT22;9050;48.746;9.232;2022-09-12T01:30:21;12.20;99.90
17849;DHT22;9050;48.746;9.232;2022-09-12T01:32:56;12.20;99.90
17849;DHT22;9050;48.746;9.232;2022-09-12T01:35:31;12.20;99.90
17849;DHT22;9050;48.746;9.232;2022-09-12T01:38:09;12.20;99.90
17849;DHT22;9050;48.746;9.232;2022-09-12T01:40:43;12.20;99.90
17849;DHT22;9050;48.746;9.232;2022-09-12T01:43:17;12.20;99.90
17849;DHT22;9050;48.746;9.232;2022-09-12T01:45:52;12.10;99.90
17849;DHT22;9050;48.746;9.232;2022-09-12T01:48:22;12.10;99.90
17849;DHT22;9050;48.746;9.232;2022-09-12T01:50:53;12.10;99.90
17849;DHT22;9050;48.746;9.232;2022-09-12T01:53:25;12.10;99.90
17849;DHT22;9050;48.746;9.232;2022-09-12T01:55:55;12.10;99.90
17849;DHT22;9050;48.746;9.232;2022-09-12T01:58:27;12.10;99.90
17849;DHT22;9050;48.746;9.232;2022-09-12T02:01:00;12.10;99.90
17849;DHT22;9050;48.746;9.232;2022-09-12T02:03:31;12.10;99.90
17849;DHT22;9050;48.746;9.232;2022-09-12T02:06:02;12.00;99.90
17849;DHT22;9050;48.746;9.232;2022-09-12T02:08:36;12.00;99.90
17849;DHT22;9050;48.746;9.232;2022-09-12T02:11:07;12.00;99.90
17849;DHT22;9050;48.746;9.232;2022-09-12T02:13:38;11.90;99.90
17849;DHT22;9050;48.746;9.232;2022-09-12T02:16:10;12.00;99.90
17849;DHT22;9050;48.746;9.232;2022-09-12T02:18:38;12.00;99.90
17849;DHT22;9050;48.746;9.232;2022-09-12T02:21:06;11.90;99.90
17849;DHT22;9050;48.746;9.232;2022-09-12T02:23:37;11.90;99.90
17849;DHT22;9050;48.746;9.232;2022-09-12T02:26:09;12.00;99.90
17849;DHT22;9050;48.746;9.232;2022-09-12T02:28:41;12.00;99.90
17849;DHT22;9050;48.746;9.232;2022-09-12T02:31:13;11.90;99.90
17849;DHT22;9050;48.746;9.232;2022-09-12T02:33:47;11.80;99.90
17849;DHT22;9050;48.746;9.232;2022-09-12T02:36:22;11.80;99.90
17849;DHT22;9050;48.746;9.232;2022-09-12T02:38:52;11.80;99.90
17849;DHT22;9050;48.746;9.232;2022-09-12T02:41:21;11.70;99.90
17849;DHT22;9050;48.746;9.232;2022-09-12T02:43:49;11.70;99.90
17849;DHT22;9050;48.746;9.232;2022-09-12T02:46:21;11.70;99.90
17849;DHT22;9050;48.746;9.232;2022-09-12T02:48:51;11.80;99.90
17849;DHT22;9050;48.746;9.232;2022-09-12T02:51:19;11.80;99.90
17849;DHT22;9050;48.746;9.232;2022-09-12T02:53:46;11.80;99.90
17849;DHT22;9050;48.746;9.232;2022-09-12T02:56:21;11.80;99.90
17849;DHT22;9050;48.746;9.232;2022-09-12T02:58:50;11.80;99.90
17849;DHT22;9050;48.746;9.232;2022-09-12T03:01:28;11.70;99.90
17849;DHT22;9050;48.746;9.232;2022-09-12T03:04:24;11.70;99.90
17849;DHT22;9050;48.746;9.232;2022-09-12T03:07:04;11.60;99.90
17849;DHT22;9050;48.746;9.232;2022-09-12T03:09:38;11.60;99.90
17849;DHT22;9050;48.746;9.232;2022-09-12T03:12:18;11.60;99.90
17849;DHT22;9050;48.746;9.232;2022-09-12T03:17:49;11.50;99.90
17849;DHT22;9050;48.746;9.232;2022-09-12T03:20:24;11.50;99.90
17849;DHT22;9050;48.746;9.232;2022-09-12T03:22:57;11.50;99.90
17849;DHT22;9050;48.746;9.232;2022-09-12T03:25:29;11.50;99.90
17849;DHT22;9050;48.746;9.232;2022-09-12T03:28:01;11.40;99.90
17849;DHT22;9050;48.746;9.232;2022-09-12T03:30:36;11.40;99.90
17849;DHT22;9050;48.746;9.232;2022-09-12T03:33:09;11.40;99.90
17849;DHT22;9050;48.746;9.232;2022-09-12T03:35:36;11.40;99.90
17849;DHT22;9050;48.746;9.232;2022-09-12T03:38:03;11.40;99.90
17849;DHT22;9050;48.746;9.232;2022-09-12T03:40:32;11.40;99.90
17849;DHT22;9050;48.746;9.232;2022-09-12T03:42:59;11.40;99.90
17849;DHT22;9050;48.746;9.232;2022-09-12T03:45:26;11.30;99.90
17849;DHT22;9050;48.746;9.232;2022-09-12T03:47:53;11.30;99.90
17849;DHT22;9050;48.746;9.232;2022-09-12T03:50:21;11.30;99.90
17849;DHT22;9050;48.746;9.232;2022-09-12T03:52:48;11.40;99.90
17849;DHT22;9050;48.746;9.232;2022-09-12T03:55:15;11.30;99.90
17849;DHT22;9050;48.746;9.232;2022-09-12T03:57:42;11.30;99.90
17849;DHT22;9050;48.746;9.232;2022-09-12T04:00:10;11.20;99.90
17849;DHT22;9050;48.746;9.232;2022-09-12T04:02:37;11.30;99.90
17849;DHT22;9050;48.746;9.232;2022-09-12T04:05:04;11.40;99.90
17849;DHT22;9050;48.746;9.232;2022-09-12T04:07:32;11.50;99.90
17849;DHT22;9050;48.746;9.232;2022-09-12T04:09:59;11.40;99.90
17849;DHT22;9050;48.746;9.232;2022-09-12T04:12:27;11.40;99.90
17849;DHT22;9050;48.746;9.232;2022-09-12T04:14:54;11.30;99.90
17849;DHT22;9050;48.746;9.232;2022-09-12T04:17:21;11.20;99.90
17849;DHT22;9050;48.746;9.232;2022-09-12T04:19:48;11.30;99.90
17849;DHT22;9050;48.746;9.232;2022-09-12T04:22:15;11.30;99.90
17849;DHT22;9050;48.746;9.232;2022-09-12T04:24:43;11.30;99.90
17849;DHT22;9050;48.746;9.232;2022-09-12T04:27:10;11.10;99.90
17849;DHT22;9050;48.746;9.232;2022-09-12T04:29:36;11.10;99.90
17849;DHT22;9050;48.746;9.232;2022-09-12T04:32:04;11.00;99.90
17849;DHT22;9050;48.746;9.232;2022-09-12T04:34:31;11.00;99.90
17849;DHT22;9050;48.746;9.232;2022-09-12T04:36:58;11.00;99.90
17849;DHT22;9050;48.746;9.232;2022-09-12T04:39:25;11.10;99.90
17849;DHT22;9050;48.746;9.232;2022-09-12T04:41:53;11.10;99.90
17849;DHT22;9050;48.746;9.232;2022-09-12T04:44:20;11.10;99.90
17849;DHT22;9050;48.746;9.232;2022-09-12T04:46:47;11.10;99.90
17849;DHT22;9050;48.746;9.232;2022-09-12T04:49:14;10.90;99.90
17849;DHT22;9050;48.746;9.232;2022-09-12T04:51:44;10.90;99.90
17849;DHT22;9050;48.746;9.232;2022-09-12T04:54:12;10.90;99.90
17849;DHT22;9050;48.746;9.232;2022-09-12T04:56:41;11.00;99.90
17849;DHT22;9050;48.746;9.232;2022-09-12T04:59:11;11.00;99.90
17849;DHT22;9050;48.746;9.232;2022-09-12T05:01:38;11.10;99.90
17849;DHT22;9050;48.746;9.232;2022-09-12T05:04:06;11.10;99.90
17849;DHT22;9050;48.746;9.232;2022-09-12T05:06:34;11.10;99.90
17849;DHT22;9050;48.746;9.232;2022-09-12T05:09:04;11.10;99.90
17849;DHT22;9050;48.746;9.232;2022-09-12T05:11:33;11.10;99.90
17849;DHT22;9050;48.746;9.232;2022-09-12T05:14:01;11.10;99.90
17849;DHT22;9050;48.746;9.232;2022-09-12T05:16:30;11.10;99.90
17849;DHT22;9050;48.746;9.232;2022-09-12T05:18:57;11.10;99.90
17849;DHT22;9050;48.746;9.232;2022-09-12T05:21:26;11.20;99.90
17849;DHT22;9050;48.746;9.232;2022-09-12T05:23:54;11.20;99.90
17849;DHT22;9050;48.746;9.232;2022-09-12T05:26:21;11.20;99.90
17849;DHT22;9050;48.746;9.232;2022-09-12T05:28:50;11.20;99.90
17849;DHT22;9050;48.746;9.232;2022-09-12T05:31:19;11.30;99.90
17849;DHT22;9050;48.746;9.232;2022-09-12T05:33:50;11.30;99.90
17849;DHT22;9050;48.746;9.232;2022-09-12T05:36:18;11.60;99.90
17849;DHT22;9050;48.746;9.232;2022-09-12T05:38:46;12.20;99.90
17849;DHT22;9050;48.746;9.232;2022-09-12T05:41:16;12.60;99.90
17849;DHT22;9050;48.746;9.232;2022-09-12T05:43:43;13.30;99.90
17849;DHT22;9050;48.746;9.232;2022-09-12T05:46:14;13.90;99.90
17849;DHT22;9050;48.746;9.232;2022-09-12T05:48:42;14.50;99.90
17849;DHT22;9050;48.746;9.232;2022-09-12T05:51:12;15.10;99.90
17849;DHT22;9050;48.746;9.232;2022-09-12T05:53:44;15.30;99.90
17849;DHT22;9050;48.746;9.232;2022-09-12T05:56:13;15.20;99.90
17849;DHT22;9050;48.746;9.232;2022-09-12T05:58:41;15.30;99.90
17849;DHT22;9050;48.746;9.232;2022-09-12T06:01:11;14.90;99.90
17849;DHT22;9050;48.746;9.232;2022-09-12T06:03:40;14.40;99.90
17849;DHT22;9050;48.746;9.232;2022-09-12T06:06:07;14.60;99.90
17849;DHT22;9050;48.746;9.232;2022-09-12T06:08:40;15.00;99.90
17849;DHT22;9050;48.746;9.232;2022-09-12T06:11:08;15.70;99.90
17849;DHT22;9050;48.746;9.232;2022-09-12T06:13:37;16.30;99.90
17849;DHT22;9050;48.746;9.232;2022-09-12T06:16:06;17.10;99.90
17849;DHT22;9050;48.746;9.232;2022-09-12T06:18:34;17.60;99.90
17849;DHT22;9050;48.746;9.232;2022-09-12T06:21:02;17.90;99.90
17849;DHT22;9050;48.746;9.232;2022-09-12T06:23:29;18.20;99.90
17849;DHT22;9050;48.746;9.232;2022-09-12T06:25:58;18.80;99.90
17849;DHT22;9050;48.746;9.232;2022-09-12T06:28:25;19.30;99.90
17849;DHT22;9050;48.746;9.232;2022-09-12T06:30:52;19.80;99.90
17849;DHT22;9050;48.746;9.232;2022-09-12T06:33:19;19.90;99.90
17849;DHT22;9050;48.746;9.232;2022-09-12T06:35:46;20.20;99.90
17849;DHT22;9050;48.746;9.232;2022-09-12T06:38:13;20.50;99.90
17849;DHT22;9050;48.746;9.232;2022-09-12T06:40:41;21.20;99.90
17849;DHT22;9050;48.746;9.232;2022-09-12T06:43:11;21.00;99.90
17849;DHT22;9050;48.746;9.232;2022-09-12T06:45:46;22.00;99.90
17849;DHT22;9050;48.746;9.232;2022-09-12T06:48:13;22.20;99.90
17849;DHT22;9050;48.746;9.232;2022-09-12T06:50:40;22.50;99.90
17849;DHT22;9050;48.746;9.232;2022-09-12T06:53:07;22.60;99.90
17849;DHT22;9050;48.746;9.232;2022-09-12T06:55:35;22.80;99.90
17849;DHT22;9050;48.746;9.232;2022-09-12T06:58:02;22.20;99.90
17849;DHT22;9050;48.746;9.232;2022-09-12T07:00:31;22.20;99.90
17849;DHT22;9050;48.746;9.232;2022-09-12T07:02:58;22.60;99.90
17849;DHT22;9050;48.746;9.232;2022-09-12T07:05:25;22.50;99.90
17849;DHT22;9050;48.746;9.232;2022-09-12T07:07:52;23.30;99.90
17849;DHT22;9050;48.746;9.232;2022-09-12T07:10:19;23.80;99.90
17849;DHT22;9050;48.746;9.232;2022-09-12T07:12:47;24.30;99.90
17849;DHT22;9050;48.746;9.232;2022-09-12T07:15:13;23.90;99.90
17849;DHT22;9050;48.746;9.232;2022-09-12T07:17:42;23.50;99.90
17849;DHT22;9050;48.746;9.232;2022-09-12T07:20:09;23.60;99.90
17849;DHT22;9050;48.746;9.232;2022-09-12T07:22:36;24.00;99.90
17849;DHT22;9050;48.746;9.232;2022-09-12T07:25:03;23.80;99.90
17849;DHT22;9050;48.746;9.232;2022-09-12T07:27:30;23.50;99.90
17849;DHT22;9050;48.746;9.232;2022-09-12T07:29:57;24.00;99.90
17849;DHT22;9050;48.746;9.232;2022-09-12T07:32:24;24.00;99.90
17849;DHT22;9050;48.746;9.232;2022-09-12T07:34:53;24.60;99.90
17849;DHT22;9050;48.746;9.232;2022-09-12T07:37:20;25.10;99.90
17849;DHT22;9050;48.746;9.232;2022-09-12T07:39:46;24.80;99.90
17849;DHT22;9050;48.746;9.232;2022-09-12T07:42:14;24.50;99.90
17849;DHT22;9050;48.746;9.232;2022-09-12T07:44:41;24.80;99.90
17849;DHT22;9050;48.746;9.232;2022-09-12T07:47:09;25.60;99.90
17849;DHT22;9050;48.746;9.232;2022-09-12T07:49:35;26.20;99.90
17849;DHT22;9050;48.746;9.232;2022-09-12T07:52:04;25.80;99.90
17849;DHT22;9050;48.746;9.232;2022-09-12T07:54:31;26.80;99.90
17849;DHT22;9050;48.746;9.232;2022-09-12T07:56:58;26.80;99.90
17849;DHT22;9050;48.746;9.232;2022-09-12T07:59:25;27.10;99.90
17849;DHT22;9050;48.746;9.232;2022-09-12T08:01:52;26.70;99.90
17849;DHT22;9050;48.746;9.232;2022-09-12T08:04:19;26.80;99.90
17849;DHT22;9050;48.746;9.232;2022-09-12T08:06:46;26.60;99.90
17849;DHT22;9050;48.746;9.232;2022-09-12T08:09:15;27.80;99.90
17849;DHT22;9050;48.746;9.232;2022-09-12T08:11:42;28.40;99.90
17849;DHT22;9050;48.746;9.232;2022-09-12T08:14:09;27.70;99.90
17849;DHT22;9050;48.746;9.232;2022-09-12T08:16:36;27.20;99.90
17849;DHT22;9050;48.746;9.232;2022-09-12T08:19:03;24.80;99.90
17849;DHT22;9050;48.746;9.232;2022-09-12T08:21:31;23.00;99.90
17849;DHT22;9050;48.746;9.232;2022-09-12T08:24:00;21.60;99.90
17849;DHT22;9050;48.746;9.232;2022-09-12T08:26:29;20.60;99.90
17849;DHT22;9050;48.746;9.232;2022-09-12T08:28:57;19.90;99.90
17849;DHT22;9050;48.746;9.232;2022-09-12T08:31:25;19.80;99.90
17849;DHT22;9050;48.746;9.232;2022-09-12T08:33:54;19.30;99.90
17849;DHT22;9050;48.746;9.232;2022-09-12T08:36:23;19.60;99.90
17849;DHT22;9050;48.746;9.232;2022-09-12T08:38:53;19.10;99.90
17849;DHT22;9050;48.746;9.232;2022-09-12T08:41:25;19.00;99.90
17849;DHT22;9050;48.746;9.232;2022-09-12T08:44:13;19.00;99.90
17849;DHT22;9050;48.746;9.232;2022-09-12T08:46:51;18.90;99.90
17849;DHT22;9050;48.746;9.232;2022-09-12T08:49:29;19.20;99.90
17849;DHT22;9050;48.746;9.232;2022-09-12T08:52:01;19.40;99.90
17849;DHT22;9050;48.746;9.232;2022-09-12T08:54:29;19.30;99.90
17849;DHT22;9050;48.746;9.232;2022-09-12T08:57:01;19.40;99.90
17849;DHT22;9050;48.746;9.232;2022-09-12T08:59:35;19.40;99.90
17849;DHT22;9050;48.746;9.232;2022-09-12T09:02:08;19.40;99.90
17849;DHT22;9050;48.746;9.232;2022-09-12T09:04:45;19.50;99.90
17849;DHT22;9050;48.746;9.232;2022-09-12T09:07:29;19.90;99.90
17849;DHT22;9050;48.746;9.232;2022-09-12T09:10:10;20.00;99.90
17849;DHT22;9050;48.746;9.232;2022-09-12T09:12:43;20.10;99.90
17849;DHT22;9050;48.746;9.232;2022-09-12T09:15:36;20.40;99.90
17849;DHT22;9050;48.746;9.232;2022-09-12T09:18:11;20.30;99.90
17849;DHT22;9050;48.746;9.232;2022-09-12T09:20:44;20.30;99.90
17849;DHT22;9050;48.746;9.232;2022-09-12T09:23:15;20.30;99.90
17849;DHT22;9050;48.746;9.232;2022-09-12T09:25:50;20.20;99.90
17849;DHT22;9050;48.746;9.232;2022-09-12T09:28:22;20.40;99.90
17849;DHT22;9050;48.746;9.232;2022-09-12T09:30:52;20.60;99.90
17849;DHT22;9050;48.746;9.232;2022-09-12T09:33:23;20.40;99.90
17849;DHT22;9050;48.746;9.232;2022-09-12T09:35:58;20.30;99.90
17849;DHT22;9050;48.746;9.232;2022-09-12T09:38:37;20.30;99.90
17849;DHT22;9050;48.746;9.232;2022-09-12T09:41:19;20.60;99.90
17849;DHT22;9050;48.746;9.232;2022-09-12T09:43:48;20.40;99.90
17849;DHT22;9050;48.746;9.232;2022-09-12T09:46:17;20.70;99.90
17849;DHT22;9050;48.746;9.232;2022-09-12T09:48:45;20.90;99.90
17849;DHT22;9050;48.746;9.232;2022-09-12T09:51:16;20.90;99.90
17849;DHT22;9050;48.746;9.232;2022-09-12T09:53:46;21.20;99.90
17849;DHT22;9050;48.746;9.232;2022-09-12T09:56:25;20.90;99.90
17849;DHT22;9050;48.746;9.232;2022-09-12T09:58:53;21.10;99.90
17849;DHT22;9050;48.746;9.232;2022-09-12T10:01:21;21.20;99.90
17849;DHT22;9050;48.746;9.232;2022-09-12T10:03:49;21.30;99.90
17849;DHT22;9050;48.746;9.232;2022-09-12T10:06:24;21.00;99.90
17849;DHT22;9050;48.746;9.232;2022-09-12T10:09:05;21.10;99.90
17849;DHT22;9050;48.746;9.232;2022-09-12T10:11:32;21.10;99.90
17849;DHT22;9050;48.746;9.232;2022-09-12T10:13:59;21.50;99.90
17849;DHT22;9050;48.746;9.232;2022-09-12T10:16:30;21.40;99.90
17849;DHT22;9050;48.746;9.232;2022-09-12T10:18:59;21.40;99.90
17849;DHT22;9050;48.746;9.232;2022-09-12T10:21:29;21.30;99.90
17849;DHT22;9050;48.746;9.232;2022-09-12T10:24:03;21.30;99.90
17849;DHT22;9050;48.746;9.232;2022-09-12T10:26:33;21.40;99.90
17849;DHT22;9050;48.746;9.232;2022-09-12T10:29:08;21.60;99.90
17849;DHT22;9050;48.746;9.232;2022-09-12T10:31:46;21.80;99.90
17849;DHT22;9050;48.746;9.232;2022-09-12T10:34:21;21.90;99.90
17849;DHT22;9050;48.746;9.232;2022-09-12T10:36:51;22.00;99.90
17849;DHT22;9050;48.746;9.232;2022-09-12T10:39:19;21.70;99.90
17849;DHT22;9050;48.746;9.232;2022-09-12T10:41:46;21.50;99.90
17849;DHT22;9050;48.746;9.232;2022-09-12T10:44:15;21.60;99.90
17849;DHT22;9050;48.746;9.232;2022-09-12T10:46:44;21.70;99.90
17849;DHT22;9050;48.746;9.232;2022-09-12T10:49:17;21.80;99.90
17849;DHT22;9050;48.746;9.232;2022-09-12T10:51:46;22.10;99.90
17849;DHT22;9050;48.746;9.232;2022-09-12T10:54:15;22.50;99.90
17849;DHT22;9050;48.746;9.232;2022-09-12T10:56:53;22.70;99.90
17849;DHT22;9050;48.746;9.232;2022-09-12T10:59:35;22.40;99.90
17849;DHT22;9050;48.746;9.232;2022-09-12T11:02:14;22.00;99.90
17849;DHT22;9050;48.746;9.232;2022-09-12T11:04:52;22.10;99.90
17849;DHT22;9050;48.746;9.232;2022-09-12T11:07:34;21.90;99.90
17849;DHT22;9050;48.746;9.232;2022-09-12T11:10:14;21.90;99.90
17849;DHT22;9050;48.746;9.232;2022-09-12T11:12:47;21.80;99.90
17849;DHT22;9050;48.746;9.232;2022-09-12T11:15:32;21.80;99.90
17849;DHT22;9050;48.746;9.232;2022-09-12T11:18:13;21.80;99.90
17849;DHT22;9050;48.746;9.232;2022-09-12T11:20:52;22.10;99.90
17849;DHT22;9050;48.746;9.232;2022-09-12T11:23:48;22.30;99.90
17849;DHT22;9050;48.746;9.232;2022-09-12T11:26:30;22.30;99.90
17849;DHT22;9050;48.746;9.232;2022-09-12T11:29:07;22.30;99.90
17849;DHT22;9050;48.746;9.232;2022-09-12T11:31:55;22.20;99.90
17849;DHT22;9050;48.746;9.232;2022-09-12T11:34:37;21.80;99.90
17849;DHT22;9050;48.746;9.232;2022-09-12T11:37:19;22.10;99.90
17849;DHT22;9050;48.746;9.232;2022-09-12T11:39:51;22.40;99.90
17849;DHT22;9050;48.746;9.232;2022-09-12T11:42:24;22.50;99.90
17849;DHT22;9050;48.746;9.232;2022-09-12T11:44:58;22.80;99.90
17849;DHT22;9050;48.746;9.232;2022-09-12T11:47:27;23.10;99.90
17849;DHT22;9050;48.746;9.232;2022-09-12T11:49:57;23.10;99.90
17849;DHT22;9050;48.746;9.232;2022-09-12T11:52:29;23.00;99.90
17849;DHT22;9050;48.746;9.232;2022-09-12T11:55:04;23.20;99.90
17849;DHT22;9050;48.746;9.232;2022-09-12T11:57:38;23.20;99.90
17849;DHT22;9050;48.746;9.232;2022-09-12T12:00:15;23.50;99.90
17849;DHT22;9050;48.746;9.232;2022-09-12T12:02:53;23.70;99.90
17849;DHT22;9050;48.746;9.232;2022-09-12T12:05:27;23.60;99.90
17849;DHT22;9050;48.746;9.232;2022-09-12T12:07:56;23.50;99.90
17849;DHT22;9050;48.746;9.232;2022-09-12T12:10:28;23.70;99.90
17849;DHT22;9050;48.746;9.232;2022-09-12T12:12:59;23.60;99.90
17849;DHT22;9050;48.746;9.232;2022-09-12T12:15:28;23.50;99.90
17849;DHT22;9050;48.746;9.232;2022-09-12T12:18:00;23.50;99.90
17849;DHT22;9050;48.746;9.232;2022-09-12T12:20:29;23.60;99.90
17849;DHT22;9050;48.746;9.232;2022-09-12T12:22:56;23.60;99.90
17849;DHT22;9050;48.746;9.232;2022-09-12T12:25:36;23.80;99.90
17849;DHT22;9050;48.746;9.232;2022-09-12T12:28:04;23.80;99.90
17849;DHT22;9050;48.746;9.232;2022-09-12T12:30:59;23.70;99.90
17849;DHT22;9050;48.746;9.232;2022-09-12T12:36:43;23.00;99.90
17849;DHT22;9050;48.746;9.232;2022-09-12T12:45:48;23.20;99.90
17849;DHT22;9050;48.746;9.232;2022-09-12T12:48:24;23.20;99.90
17849;DHT22;9050;48.746;9.232;2022-09-12T12:50:51;22.90;99.90
17849;DHT22;9050;48.746;9.232;2022-09-12T12:53:22;22.80;99.90
17849;DHT22;9050;48.746;9.232;2022-09-12T12:55:51;22.90;99.90
17849;DHT22;9050;48.746;9.232;2022-09-12T12:58:27;23.00;99.90
17849;DHT22;9050;48.746;9.232;2022-09-12T13:01:06;23.00;99.90
17849;DHT22;9050;48.746;9.232;2022-09-12T13:03:36;22.90;99.90
17849;DHT22;9050;48.746;9.232;2022-09-12T13:06:05;23.00;99.90
17849;DHT22;9050;48.746;9.232;2022-09-12T13:08:38;23.10;99.90
17849;DHT22;9050;48.746;9.232;2022-09-12T13:11:13;23.30;99.90
17849;DHT22;9050;48.746;9.232;2022-09-12T13:13:45;23.50;99.90
17849;DHT22;9050;48.746;9.232;2022-09-12T13:16:29;23.50;99.90
17849;DHT22;9050;48.746;9.232;2022-09-12T13:18:56;23.60;99.90
17849;DHT22;9050;48.746;9.232;2022-09-12T13:21:27;23.60;99.90
17849;DHT22;9050;48.746;9.232;2022-09-12T13:24:03;23.60;99.90
17849;DHT22;9050;48.746;9.232;2022-09-12T13:26:39;23.50;99.90
17849;DHT22;9050;48.746;9.232;2022-09-12T13:29:11;23.60;99.90
17849;DHT22;9050;48.746;9.232;2022-09-12T13:31:38;23.70;99.90
17849;DHT22;9050;48.746;9.232;2022-09-12T13:34:06;23.70;99.90
17849;DHT22;9050;48.746;9.232;2022-09-12T13:36:56;23.80;99.90
17849;DHT22;9050;48.746;9.232;2022-09-12T13:39:38;23.80;99.90
17849;DHT22;9050;48.746;9.232;2022-09-12T13:42:34;23.90;99.90
17849;DHT22;9050;48.746;9.232;2022-09-12T13:45:05;23.90;99.90
17849;DHT22;9050;48.746;9.232;2022-09-12T13:47:36;23.90;99.90
17849;DHT22;9050;48.746;9.232;2022-09-12T13:50:06;23.90;99.90
17849;DHT22;9050;48.746;9.232;2022-09-12T13:52:35;23.90;99.90
17849;DHT22;9050;48.746;9.232;2022-09-12T13:55:11;23.70;99.90
17849;DHT22;9050;48.746;9.232;2022-09-12T13:57:40;23.70;99.90
17849;DHT22;9050;48.746;9.232;2022-09-12T14:00:14;23.70;99.90
17849;DHT22;9050;48.746;9.232;2022-09-12T14:02:44;23.70;99.90
17849;DHT22;9050;48.746;9.232;2022-09-12T14:05:13;23.60;99.90
17849;DHT22;9050;48.746;9.232;2022-09-12T14:07:52;23.70;99.90
17849;DHT22;9050;48.746;9.232;2022-09-12T14:10:27;23.90;99.90
17849;DHT22;9050;48.746;9.232;2022-09-12T14:12:57;23.90;99.90
17849;DHT22;9050;48.746;9.232;2022-09-12T14:15:25;24.00;99.90
17849;DHT22;9050;48.746;9.232;2022-09-12T14:17:54;24.00;99.90
17849;DHT22;9050;48.746;9.232;2022-09-12T14:20:26;23.80;99.90
17849;DHT22;9050;48.746;9.232;2022-09-12T14:22:59;23.60;99.90
17849;DHT22;9050;48.746;9.232;2022-09-12T14:25:34;23.60;99.90
17849;DHT22;9050;48.746;9.232;2022-09-12T14:28:04;23.50;99.90
17849;DHT22;9050;48.746;9.232;2022-09-12T14:30:33;23.30;99.90
17849;DHT22;9050;48.746;9.232;2022-09-12T14:33:18;23.40;99.90
17849;DHT22;9050;48.746;9.232;2022-09-12T14:35:46;23.50;99.90
17849;DHT22;9050;48.746;9.232;2022-09-12T14:38:23;23.60;99.90
17849;DHT22;9050;48.746;9.232;2022-09-12T14:40:59;23.50;99.90
17849;DHT22;9050;48.746;9.232;2022-09-12T14:43:28;23.50;99.90
17849;DHT22;9050;48.746;9.232;2022-09-12T14:45:57;23.50;99.90
17849;DHT22;9050;48.746;9.232;2022-09-12T14:48:26;23.50;99.90
17849;DHT22;9050;48.746;9.232;2022-09-12T14:50:53;23.40;99.90
17849;DHT22;9050;48.746;9.232;2022-09-12T14:53:24;23.40;99.90
17849;DHT22;9050;48.746;9.232;2022-09-12T14:55:56;23.30;99.90
17849;DHT22;9050;48.746;9.232;2022-09-12T14:58:25;23.30;99.90
17849;DHT22;9050;48.746;9.232;2022-09-12T15:00:54;23.30;99.90
17849;DHT22;9050;48.746;9.232;2022-09-12T15:03:27;23.40;99.90
17849;DHT22;9050;48.746;9.232;2022-09-12T15:05:54;23.50;99.90
17849;DHT22;9050;48.746;9.232;2022-09-12T15:08:21;23.50;99.90
17849;DHT22;9050;48.746;9.232;2022-09-12T15:10:48;23.50;99.90
17849;DHT22;9050;48.746;9.232;2022-09-12T15:13:19;23.40;99.90
17849;DHT22;9050;48.746;9.232;2022-09-12T15:15:49;23.40;99.90
17849;DHT22;9050;48.746;9.232;2022-09-12T15:18:17;23.50;99.90
17849;DHT22;9050;48.746;9.232;2022-09-12T15:20:46;23.40;99.90
17849;DHT22;9050;48.746;9.232;2022-09-12T15:23:18;23.50;99.90
17849;DHT22;9050;48.746;9.232;2022-09-12T15:25:46;23.60;99.90
17849;DHT22;9050;48.746;9.232;2022-09-12T15:28:20;23.60;99.90
17849;DHT22;9050;48.746;9.232;2022-09-12T15:30:49;23.60;99.90
17849;DHT22;9050;48.746;9.232;2022-09-12T15:33:16;23.50;99.90
17849;DHT22;9050;48.746;9.232;2022-09-12T15:35:44;23.40;99.90
17849;DHT22;9050;48.746;9.232;2022-09-12T15:38:10;23.50;99.90
17849;DHT22;9050;48.746;9.232;2022-09-12T15:40:38;23.50;99.90
17849;DHT22;9050;48.746;9.232;2022-09-12T15:43:05;23.50;99.90
17849;DHT22;9050;48.746;9.232;2022-09-12T15:45:34;23.50;99.90
17849;DHT22;9050;48.746;9.232;2022-09-12T15:48:01;23.50;99.90
17849;DHT22;9050;48.746;9.232;2022-09-12T15:50:29;23.50;99.90
17849;DHT22;9050;48.746;9.232;2022-09-12T15:52:57;23.30;99.90
17849;DHT22;9050;48.746;9.232;2022-09-12T15:55:27;23.30;99.90
17849;DHT22;9050;48.746;9.232;2022-09-12T15:57:56;23.30;99.90
17849;DHT22;9050;48.746;9.232;2022-09-12T16:00:24;23.30;99.90
17849;DHT22;9050;48.746;9.232;2022-09-12T16:02:52;23.20;99.90
17849;DHT22;9050;48.746;9.232;2022-09-12T16:05:21;23.20;99.90
17849;DHT22;9050;48.746;9.232;2022-09-12T16:07:50;23.20;99.90
17849;DHT22;9050;48.746;9.232;2022-09-12T16:10:20;23.20;99.90
17849;DHT22;9050;48.746;9.232;2022-09-12T16:12:47;23.20;99.90
17849;DHT22;9050;48.746;9.232;2022-09-12T16:15:16;23.10;99.90
17849;DHT22;9050;48.746;9.232;2022-09-12T16:17:43;23.00;99.90
17849;DHT22;9050;48.746;9.232;2022-09-12T16:20:12;23.00;99.90
17849;DHT22;9050;48.746;9.232;2022-09-12T16:22:39;23.00;99.90